Time;durP1;ratioP1;P1;durP2;ratioP2;P2;SDS_P1;SDS_P2;PMS_P1;PMS_P2;Temp;Humidity;BMP_temperature;BMP_pressure;BME280_temperature;BME280_humidity;BME280_pressure;Samples;Min_cycle;Max_cycle;Signal;HPM_P1;HPM_P2
2023/12/20 00:02:06;;;;;;;10.57;6.10;;;;;;;;;;5013193;28;20033;-66
2023/12/20 00:04:32;;;;;;;11.40;6.38;;;;;;;;;;5009103;28;20284;-65
2023/12/20 00:06:57;;;;;;;13.02;6.30;;;;;;;;;;5023869;28;20053;-65
2023/12/20 00:09:22;;;;;;;8.07;4.87;;;;;;;;;;5011466;28;20026;-66
2023/12/20 00:11:47;;;;;;;13.27;4.65;;;;;;;;;;5022574;28;20276;-66
2023/12/20 00:14:12;;;;;;;7.25;3.85;;;;;;;;;;5014911;28;20080;-66
2023/12/20 00:16:38;;;;;;;11.20;3.17;;;;;;;;;;5015881;28;20037;-65
2023/12/20 00:19:03;;;;;;;7.37;2.77;;;;;;;;;;5008907;28;20062;-66
2023/12/20 00:21:28;;;;;;;6.18;2.58;;;;;;;;;;5017314;28;20737;-65
2023/12/20 00:23:53;;;;;;;3.95;1.95;;;;;;;;;;5012367;28;20030;-65
2023/12/20 00:26:19;;;;;;;15.07;2.73;;;;;;;;;;5013733;28;20034;-66
2023/12/20 00:28:44;;;;;;;8.50;2.42;;;;;;;;;;5016193;28;20275;-66
2023/12/20 00:31:09;;;;;;;7.87;2.23;;;;;;;;;;5015027;28;20021;-65
2023/12/20 00:33:34;;;;;;;9.25;1.52;;;;;;;;;;5012875;28;20631;-65
2023/12/20 00:36:00;;;;;;;5.50;1.67;;;;;;;;;;5017158;28;20101;-65
2023/12/20 00:38:25;;;;;;;6.10;1.83;;;;;;;;;;5015241;28;20292;-65
2023/12/20 00:40:50;;;;;;;6.43;1.95;;;;;;;;;;5013376;28;20030;-66
2023/12/20 00:43:16;;;;;;;6.25;1.75;;;;;;;;;;5010626;28;20064;-65
2023/12/20 00:45:41;;;;;;;3.30;1.27;;;;;;;;;;5013089;28;20018;-66
2023/12/20 00:48:06;;;;;;;5.05;1.60;;;;;;;;;;5012965;28;20413;-66
2023/12/20 00:50:32;;;;;;;6.53;1.70;;;;;;;;;;5008375;28;20037;-65
2023/12/20 00:52:57;;;;;;;4.85;1.42;;;;;;;;;;5011907;28;20128;-66
2023/12/20 00:55:22;;;;;;;6.32;2.08;;;;;;;;;;5001207;28;20088;-65
2023/12/20 00:57:47;;;;;;;7.22;2.05;;;;;;;;;;5012818;28;20468;-65
2023/12/20 01:00:13;;;;;;;6.20;2.13;;;;;;;;;;5013138;28;20033;-65
2023/12/20 01:02:38;;;;;;;5.75;2.40;;;;;;;;;;5012550;28;20331;-65
2023/12/20 01:05:04;;;;;;;7.13;1.58;;;;;;;;;;5013992;28;20021;-65
2023/12/20 01:07:29;;;;;;;7.85;1.77;;;;;;;;;;5003077;28;20014;-65
2023/12/20 01:09:54;;;;;;;4.90;1.70;;;;;;;;;;4995758;28;20068;-66
2023/12/20 01:12:20;;;;;;;8.00;1.83;;;;;;;;;;5012837;28;20014;-65
2023/12/20 01:14:45;;;;;;;6.90;1.98;;;;;;;;;;5012356;28;20678;-64
2023/12/20 01:17:10;;;;;;;8.93;2.25;;;;;;;;;;5012210;28;20036;-65
2023/12/20 01:19:36;;;;;;;7.33;2.00;;;;;;;;;;5012814;28;20030;-64
2023/12/20 01:22:01;;;;;;;3.78;1.77;;;;;;;;;;5011943;28;20280;-65
2023/12/20 01:24:26;;;;;;;5.60;1.52;;;;;;;;;;5024866;28;20088;-64
2023/12/20 01:26:51;;;;;;;10.00;2.75;;;;;;;;;;5020037;28;20391;-64
2023/12/20 01:29:17;;;;;;;6.20;1.55;;;;;;;;;;5013473;28;20026;-65
2023/12/20 01:31:42;;;;;;;7.85;2.05;;;;;;;;;;5012658;28;20153;-65
2023/12/20 01:34:07;;;;;;;10.98;1.88;;;;;;;;;;5025512;28;20018;-65
2023/12/20 01:36:32;;;;;;;8.20;2.07;;;;;;;;;;5011582;28;20056;-65
2023/12/20 01:38:58;;;;;;;10.97;2.33;;;;;;;;;;5011906;28;20351;-64
2023/12/20 01:41:23;;;;;;;7.63;2.40;;;;;;;;;;5012082;28;20693;-64
2023/12/20 01:43:48;;;;;;;10.57;2.60;;;;;;;;;;5011498;28;20022;-64
2023/12/20 01:46:14;;;;;;;6.18;1.80;;;;;;;;;;5012315;28;20025;-64
2023/12/20 01:48:40;;;;;;;8.63;2.28;;;;;;;;;;5011336;28;20030;-64
2023/12/20 01:51:05;;;;;;;6.80;1.60;;;;;;;;;;5009460;28;20440;-64
2023/12/20 01:53:32;;;;;;;10.73;2.78;;;;;;;;;;5006135;28;20083;-64
2023/12/20 01:55:58;;;;;;;8.82;2.15;;;;;;;;;;5002807;28;20487;-64
2023/12/20 01:58:24;;;;;;;4.75;1.80;;;;;;;;;;5013592;28;20476;-64
2023/12/20 02:00:50;;;;;;;9.05;2.38;;;;;;;;;;5016859;28;20060;-66
2023/12/20 02:03:15;;;;;;;6.47;1.60;;;;;;;;;;5000656;28;20413;-65
2023/12/20 02:05:41;;;;;;;8.75;1.83;;;;;;;;;;5012369;28;20429;-65
2023/12/20 02:08:06;;;;;;;7.82;2.20;;;;;;;;;;5013374;28;20022;-65
2023/12/20 02:10:31;;;;;;;7.60;2.25;;;;;;;;;;5013062;28;20018;-65
2023/12/20 02:12:57;;;;;;;7.68;1.80;;;;;;;;;;5024765;28;20472;-65
2023/12/20 02:15:22;;;;;;;10.13;2.85;;;;;;;;;;5018461;28;20026;-65
2023/12/20 02:17:48;;;;;;;6.60;2.08;;;;;;;;;;5018689;28;20112;-65
2023/12/20 02:20:13;;;;;;;11.35;2.60;;;;;;;;;;5013116;28;20021;-65
2023/12/20 02:22:38;;;;;;;15.02;2.78;;;;;;;;;;5020890;28;20519;-65
2023/12/20 02:25:04;;;;;;;10.83;2.83;;;;;;;;;;5011114;28;20029;-65
2023/12/20 02:27:30;;;;;;;7.47;2.10;;;;;;;;;;5018948;28;20331;-66
2023/12/20 02:29:55;;;;;;;7.32;2.65;;;;;;;;;;5015054;28;20133;-66
2023/12/20 02:32:21;;;;;;;10.70;2.80;;;;;;;;;;5015496;28;20038;-66
2023/12/20 02:34:49;;;;;;;10.18;2.83;;;;;;;;;;5014703;28;20481;-66
2023/12/20 02:37:14;;;;;;;8.75;2.22;;;;;;;;;;5015168;28;20461;-66
2023/12/20 02:39:39;;;;;;;8.07;3.33;;;;;;;;;;5015023;28;20047;-66
2023/12/20 02:42:04;;;;;;;11.45;3.38;;;;;;;;;;5015005;28;20033;-66
2023/12/20 02:44:30;;;;;;;11.38;2.80;;;;;;;;;;5014514;28;20033;-66
2023/12/20 02:46:55;;;;;;;5.90;2.33;;;;;;;;;;5014651;28;20030;-66
2023/12/20 02:49:20;;;;;;;9.60;3.40;;;;;;;;;;5021090;28;20056;-66
2023/12/20 02:51:46;;;;;;;16.23;3.42;;;;;;;;;;5014706;28;20354;-66
2023/12/20 02:54:11;;;;;;;12.10;3.20;;;;;;;;;;5014624;28;20388;-67
2023/12/20 02:56:36;;;;;;;8.88;2.97;;;;;;;;;;5014801;28;20040;-66
2023/12/20 02:59:02;;;;;;;6.43;2.60;;;;;;;;;;5014737;28;20358;-66
2023/12/20 03:01:28;;;;;;;10.38;3.33;;;;;;;;;;5012229;28;20634;-65
2023/12/20 03:03:53;;;;;;;7.13;3.25;;;;;;;;;;5014098;28;20048;-65
2023/12/20 03:06:18;;;;;;;7.88;3.25;;;;;;;;;;5014559;28;20104;-65
2023/12/20 03:08:44;;;;;;;9.73;3.10;;;;;;;;;;5014724;28;20026;-65
2023/12/20 03:11:09;;;;;;;12.73;3.08;;;;;;;;;;5014607;28;20064;-66
2023/12/20 03:13:34;;;;;;;11.67;4.03;;;;;;;;;;5014013;28;20626;-65
2023/12/20 03:15:59;;;;;;;11.30;3.50;;;;;;;;;;5014274;28;20741;-65
2023/12/20 03:18:25;;;;;;;5.80;3.08;;;;;;;;;;5019516;28;20269;-65
2023/12/20 03:20:50;;;;;;;9.57;3.03;;;;;;;;;;5005645;28;20053;-65
2023/12/20 03:23:16;;;;;;;10.20;3.58;;;;;;;;;;5008993;28;20038;-66
2023/12/20 03:25:41;;;;;;;11.80;3.17;;;;;;;;;;5017794;28;20464;-66
2023/12/20 03:28:06;;;;;;;9.00;3.95;;;;;;;;;;5015246;28;20057;-66
2023/12/20 03:30:31;;;;;;;14.98;3.63;;;;;;;;;;5013685;28;20096;-66
2023/12/20 03:32:57;;;;;;;11.00;3.67;;;;;;;;;;5014016;28;20045;-66
2023/12/20 03:35:22;;;;;;;11.23;3.53;;;;;;;;;;5014703;28;20315;-66
2023/12/20 03:37:47;;;;;;;11.95;3.65;;;;;;;;;;5021081;28;20264;-66
2023/12/20 03:40:12;;;;;;;9.90;3.10;;;;;;;;;;5013898;28;20022;-65
2023/12/20 03:42:38;;;;;;;6.22;3.17;;;;;;;;;;5011217;28;20032;-65
2023/12/20 03:45:03;;;;;;;10.23;2.67;;;;;;;;;;5019013;28;20143;-65
2023/12/20 03:47:28;;;;;;;12.35;2.95;;;;;;;;;;5008590;28;20758;-66
2023/12/20 03:49:53;;;;;;;7.03;3.20;;;;;;;;;;5023179;28;20029;-65
2023/12/20 03:52:19;;;;;;;12.20;2.80;;;;;;;;;;5004858;28;20300;-66
2023/12/20 03:54:44;;;;;;;11.43;2.70;;;;;;;;;;5011365;28;20279;-66
2023/12/20 03:57:09;;;;;;;12.02;3.17;;;;;;;;;;5000208;28;20276;-65
2023/12/20 03:59:35;;;;;;;9.10;3.08;;;;;;;;;;5006314;28;20030;-65
2023/12/20 04:02:00;;;;;;;10.30;2.88;;;;;;;;;;5006995;28;20025;-66
2023/12/20 04:04:25;;;;;;;11.53;3.00;;;;;;;;;;5000628;28;20056;-66
2023/12/20 04:06:50;;;;;;;7.20;2.87;;;;;;;;;;5018400;28;20781;-65
2023/12/20 04:09:15;;;;;;;11.70;3.10;;;;;;;;;;5014682;28;20276;-66
2023/12/20 04:11:41;;;;;;;12.50;3.33;;;;;;;;;;5027211;28;20029;-65
2023/12/20 04:14:07;;;;;;;8.50;2.83;;;;;;;;;;5017847;28;20608;-65
2023/12/20 04:16:32;;;;;;;12.15;3.35;;;;;;;;;;5003206;28;20627;-66
2023/12/20 04:18:57;;;;;;;8.95;3.10;;;;;;;;;;5005754;28;20018;-66
2023/12/20 04:21:22;;;;;;;15.20;3.37;;;;;;;;;;5008694;28;20029;-66
2023/12/20 04:23:47;;;;;;;4.90;2.63;;;;;;;;;;5004387;28;20285;-66
2023/12/20 04:26:13;;;;;;;5.95;2.53;;;;;;;;;;5002726;28;20052;-66
2023/12/20 04:28:38;;;;;;;7.53;3.03;;;;;;;;;;5011192;28;20174;-65
2023/12/20 04:31:03;;;;;;;7.07;2.70;;;;;;;;;;5005920;28;20858;-66
2023/12/20 04:33:29;;;;;;;7.93;2.97;;;;;;;;;;5003054;28;20277;-65
2023/12/20 04:35:54;;;;;;;7.25;2.75;;;;;;;;;;5012938;28;20272;-66
2023/12/20 04:38:20;;;;;;;11.10;3.17;;;;;;;;;;5003848;28;20026;-66
2023/12/20 04:40:45;;;;;;;8.50;2.85;;;;;;;;;;5019713;28;20101;-66
2023/12/20 04:43:10;;;;;;;6.93;2.53;;;;;;;;;;5011962;28;20038;-65
2023/12/20 04:45:36;;;;;;;10.90;3.05;;;;;;;;;;5017978;28;20322;-65
2023/12/20 04:48:02;;;;;;;8.70;2.40;;;;;;;;;;5018031;28;20477;-66
2023/12/20 04:50:27;;;;;;;8.95;2.60;;;;;;;;;;5025315;28;20105;-65
2023/12/20 04:52:52;;;;;;;8.13;2.70;;;;;;;;;;5012798;28;20520;-65
2023/12/20 04:55:17;;;;;;;8.50;3.25;;;;;;;;;;5001883;28;20269;-65
2023/12/20 04:57:43;;;;;;;12.90;3.10;;;;;;;;;;5012930;28;20056;-65
2023/12/20 05:00:08;;;;;;;11.40;2.80;;;;;;;;;;5008557;28;20042;-66
2023/12/20 05:02:34;;;;;;;13.18;3.28;;;;;;;;;;5015113;28;20136;-66
2023/12/20 05:05:00;;;;;;;10.95;2.90;;;;;;;;;;5007274;28;20525;-66
2023/12/20 05:07:25;;;;;;;13.75;3.33;;;;;;;;;;5024265;28;20022;-66
2023/12/20 05:09:50;;;;;;;6.20;2.50;;;;;;;;;;5012675;28;20076;-66
2023/12/20 05:12:15;;;;;;;11.70;3.20;;;;;;;;;;5012519;28;20030;-66
2023/12/20 05:14:41;;;;;;;14.60;3.20;;;;;;;;;;4995857;28;20032;-66
2023/12/20 05:17:06;;;;;;;12.85;2.70;;;;;;;;;;5010653;28;20282;-66
2023/12/20 05:19:34;;;;;;;10.40;2.92;;;;;;;;;;5012439;28;20357;-66
2023/12/20 05:22:00;;;;;;;9.43;2.67;;;;;;;;;;5013267;28;20017;-66
2023/12/20 05:24:25;;;;;;;7.10;2.42;;;;;;;;;;5011981;28;20377;-66
2023/12/20 05:26:50;;;;;;;9.47;5.33;;;;;;;;;;5005157;28;20209;-66
2023/12/20 05:29:16;;;;;;;18.42;5.72;;;;;;;;;;5007546;28;20346;-66
2023/12/20 05:31:42;;;;;;;17.92;6.15;;;;;;;;;;5012155;28;20160;-66
2023/12/20 05:34:08;;;;;;;23.92;9.20;;;;;;;;;;5015960;28;20548;-66
2023/12/20 05:36:33;;;;;;;10.95;5.13;;;;;;;;;;5017332;28;20038;-66
2023/12/20 05:38:58;;;;;;;10.30;3.58;;;;;;;;;;5012843;28;20353;-66
2023/12/20 05:41:23;;;;;;;11.90;4.60;;;;;;;;;;5012320;28;20017;-66
2023/12/20 05:43:49;;;;;;;11.23;4.03;;;;;;;;;;4999292;28;20026;-66
2023/12/20 05:46:14;;;;;;;12.20;4.80;;;;;;;;;;5012131;28;20631;-66
2023/12/20 05:48:39;;;;;;;7.03;4.20;;;;;;;;;;5011770;28;20626;-65
2023/12/20 05:51:04;;;;;;;13.43;4.07;;;;;;;;;;5012413;28;20619;-66
2023/12/20 05:53:29;;;;;;;19.77;5.13;;;;;;;;;;5007420;28;20018;-66
2023/12/20 05:55:55;;;;;;;8.10;3.47;;;;;;;;;;5008008;28;20268;-66
2023/12/20 05:58:20;;;;;;;7.50;3.55;;;;;;;;;;5012384;28;20320;-66
2023/12/20 06:00:45;;;;;;;13.13;3.80;;;;;;;;;;5009633;28;20500;-66
2023/12/20 06:03:10;;;;;;;8.23;3.20;;;;;;;;;;5020026;28;20554;-66
2023/12/20 06:05:36;;;;;;;14.23;4.00;;;;;;;;;;5015478;28;20803;-66
2023/12/20 06:08:02;;;;;;;9.90;3.80;;;;;;;;;;5016831;28;20033;-66
2023/12/20 06:10:28;;;;;;;11.35;3.80;;;;;;;;;;5014793;28;20385;-65
2023/12/20 06:12:53;;;;;;;8.52;3.13;;;;;;;;;;5015871;28;20040;-66
2023/12/20 06:15:19;;;;;;;8.70;3.15;;;;;;;;;;5016870;28;20033;-66
2023/12/20 06:17:44;;;;;;;10.38;3.45;;;;;;;;;;5021726;28;20022;-66
2023/12/20 06:20:09;;;;;;;11.20;3.47;;;;;;;;;;5011269;28;20026;-65
2023/12/20 06:22:35;;;;;;;17.98;3.95;;;;;;;;;;5018571;28;20080;-66
2023/12/20 06:25:01;;;;;;;17.27;4.22;;;;;;;;;;5007955;28;20215;-66
2023/12/20 06:27:26;;;;;;;10.35;3.25;;;;;;;;;;5023695;28;20026;-66
2023/12/20 06:29:51;;;;;;;10.07;3.20;;;;;;;;;;5021922;28;20032;-66
2023/12/20 06:32:16;;;;;;;14.10;3.70;;;;;;;;;;4990231;28;20285;-66
2023/12/20 06:34:41;;;;;;;7.37;3.37;;;;;;;;;;5011446;28;20042;-66
2023/12/20 06:37:07;;;;;;;7.80;3.92;;;;;;;;;;5018943;28;20318;-66
2023/12/20 06:39:33;;;;;;;9.00;3.45;;;;;;;;;;5017160;28;20030;-66
2023/12/20 06:41:59;;;;;;;7.53;3.17;;;;;;;;;;5006877;28;20066;-66
2023/12/20 06:44:24;;;;;;;11.55;3.60;;;;;;;;;;5016034;28;20044;-66
2023/12/20 06:46:49;;;;;;;8.43;3.23;;;;;;;;;;5025104;28;20108;-66
2023/12/20 06:49:14;;;;;;;10.63;3.90;;;;;;;;;;5014713;28;20300;-65
2023/12/20 06:51:40;;;;;;;14.43;3.38;;;;;;;;;;5014290;28;20026;-65
2023/12/20 06:54:05;;;;;;;5.47;2.23;;;;;;;;;;5010856;28;20079;-66
2023/12/20 06:56:30;;;;;;;8.50;3.08;;;;;;;;;;5018973;28;20272;-66
2023/12/20 06:58:56;;;;;;;12.45;3.10;;;;;;;;;;5015540;28;20388;-66
2023/12/20 07:01:21;;;;;;;9.70;3.80;;;;;;;;;;5019152;28;20045;-65
2023/12/20 07:03:46;;;;;;;10.88;3.10;;;;;;;;;;5010012;28;20068;-66
2023/12/20 07:06:11;;;;;;;13.73;3.55;;;;;;;;;;5010960;28;20022;-66
2023/12/20 07:08:37;;;;;;;10.93;3.45;;;;;;;;;;5014124;28;20076;-66
2023/12/20 07:11:02;;;;;;;13.32;3.70;;;;;;;;;;5012239;28;20029;-66
2023/12/20 07:13:27;;;;;;;8.63;3.22;;;;;;;;;;5018403;28;20125;-66
2023/12/20 07:15:52;;;;;;;10.27;3.40;;;;;;;;;;5008455;28;20030;-66
2023/12/20 07:18:18;;;;;;;12.95;3.75;;;;;;;;;;5019924;28;20024;-65
2023/12/20 07:20:43;;;;;;;8.73;3.22;;;;;;;;;;5018319;28;20113;-66
2023/12/20 07:23:08;;;;;;;11.30;3.45;;;;;;;;;;4996471;28;20480;-66
2023/12/20 07:25:33;;;;;;;10.55;3.15;;;;;;;;;;5015436;28;20480;-66
2023/12/20 07:27:59;;;;;;;8.70;2.88;;;;;;;;;;5014078;28;20030;-66
2023/12/20 07:30:24;;;;;;;12.48;3.80;;;;;;;;;;5016876;28;20040;-66
2023/12/20 07:32:49;;;;;;;10.82;2.97;;;;;;;;;;5031888;28;20060;-66
2023/12/20 07:35:17;;;;;;;15.07;4.20;;;;;;;;;;5019927;28;20017;-66
2023/12/20 07:37:42;;;;;;;10.52;3.22;;;;;;;;;;4998313;28;20033;-66
2023/12/20 07:40:08;;;;;;;19.02;4.35;;;;;;;;;;4993145;28;20091;-66
2023/12/20 07:42:33;;;;;;;4.90;2.17;;;;;;;;;;4995995;28;20042;-65
2023/12/20 07:44:58;;;;;;;10.93;4.00;;;;;;;;;;4996523;28;20103;-66
2023/12/20 07:47:25;;;;;;;12.25;3.67;;;;;;;;;;4993502;28;20277;-66
2023/12/20 07:49:51;;;;;;;13.68;3.88;;;;;;;;;;4997168;28;20037;-65
2023/12/20 07:52:16;;;;;;;13.60;3.35;;;;;;;;;;4998586;28;20033;-66
2023/12/20 07:54:42;;;;;;;11.30;3.40;;;;;;;;;;4983519;28;20030;-66
2023/12/20 07:57:07;;;;;;;12.98;3.53;;;;;;;;;;4987137;28;20400;-66
2023/12/20 07:59:32;;;;;;;11.50;3.72;;;;;;;;;;4979689;28;20026;-66
2023/12/20 08:01:58;;;;;;;12.73;3.95;;;;;;;;;;4979171;28;20841;-66
2023/12/20 08:04:23;;;;;;;12.68;3.42;;;;;;;;;;4977495;28;20870;-66
2023/12/20 08:06:49;;;;;;;11.85;3.15;;;;;;;;;;4980009;28;20807;-65
2023/12/20 08:09:14;;;;;;;11.10;3.67;;;;;;;;;;4976249;28;20927;-66
2023/12/20 08:11:40;;;;;;;9.93;3.38;;;;;;;;;;4954291;28;20129;-66
2023/12/20 08:14:05;;;;;;;14.35;4.30;;;;;;;;;;4963242;28;20025;-65
2023/12/20 08:16:30;;;;;;;12.30;3.35;;;;;;;;;;4983010;28;20037;-66
2023/12/20 08:18:55;;;;;;;11.07;3.25;;;;;;;;;;4982845;28;20804;-67
2023/12/20 08:21:22;;;;;;;11.65;3.58;;;;;;;;;;4982704;28;20973;-66
2023/12/20 08:23:47;;;;;;;9.68;3.10;;;;;;;;;;4980086;28;20069;-66
2023/12/20 08:26:13;;;;;;;6.70;2.83;;;;;;;;;;4982123;28;20033;-66
2023/12/20 08:28:38;;;;;;;8.98;3.65;;;;;;;;;;4979669;28;20291;-66
2023/12/20 08:31:03;;;;;;;15.05;3.45;;;;;;;;;;4983745;28;20036;-66
2023/12/20 08:33:28;;;;;;;9.98;3.35;;;;;;;;;;4996968;28;20037;-66
2023/12/20 08:35:54;;;;;;;10.23;3.03;;;;;;;;;;4981503;28;20022;-66
2023/12/20 08:38:19;;;;;;;14.37;3.23;;;;;;;;;;4997633;28;20291;-67
2023/12/20 08:40:44;;;;;;;8.45;4.20;;;;;;;;;;4976064;28;20383;-67
2023/12/20 08:43:09;;;;;;;10.93;2.97;;;;;;;;;;4982216;28;20034;-67
2023/12/20 08:45:35;;;;;;;9.25;3.30;;;;;;;;;;4983670;28;20132;-67
2023/12/20 08:48:00;;;;;;;9.98;3.83;;;;;;;;;;4995738;28;20096;-66
2023/12/20 08:50:26;;;;;;;9.40;3.80;;;;;;;;;;4992550;28;20030;-66
2023/12/20 08:52:51;;;;;;;13.90;3.40;;;;;;;;;;4997580;28;20033;-66
2023/12/20 08:55:18;;;;;;;10.93;3.50;;;;;;;;;;5002148;28;20338;-66
2023/12/20 08:57:43;;;;;;;10.82;3.28;;;;;;;;;;4997351;28;20125;-66
2023/12/20 09:00:08;;;;;;;11.68;3.25;;;;;;;;;;4999922;28;20033;-66
2023/12/20 09:02:35;;;;;;;14.15;3.08;;;;;;;;;;4997885;28;20140;-67
2023/12/20 09:05:01;;;;;;;7.95;2.55;;;;;;;;;;4995032;28;20025;-67
2023/12/20 09:07:27;;;;;;;11.95;3.17;;;;;;;;;;4983851;28;20049;-67
2023/12/20 09:09:52;;;;;;;7.93;2.47;;;;;;;;;;4995630;28;20412;-67
2023/12/20 09:12:19;;;;;;;6.72;2.30;;;;;;;;;;4985809;28;20030;-67
2023/12/20 09:14:44;;;;;;;5.47;2.00;;;;;;;;;;4988746;28;20874;-67
2023/12/20 09:17:11;;;;;;;4.22;1.77;;;;;;;;;;4990401;28;20033;-66
2023/12/20 09:19:36;;;;;;;9.52;2.30;;;;;;;;;;4995520;28;20025;-66
2023/12/20 09:22:01;;;;;;;6.30;2.65;;;;;;;;;;5002902;28;20041;-66
2023/12/20 09:24:27;;;;;;;15.32;2.92;;;;;;;;;;5007015;28;20029;-66
2023/12/20 09:26:52;;;;;;;8.05;2.67;;;;;;;;;;4999938;28;20029;-68
2023/12/20 09:29:18;;;;;;;5.85;2.22;;;;;;;;;;4983213;28;20026;-67
2023/12/20 09:31:44;;;;;;;7.38;2.10;;;;;;;;;;4999189;28;20140;-67
2023/12/20 09:34:09;;;;;;;9.63;2.15;;;;;;;;;;4997583;28;20070;-67
2023/12/20 09:36:36;;;;;;;8.65;2.65;;;;;;;;;;4990721;28;20728;-67
2023/12/20 09:39:01;;;;;;;9.13;3.08;;;;;;;;;;4991318;28;20029;-67
2023/12/20 09:41:28;;;;;;;11.57;2.92;;;;;;;;;;4984420;28;20043;-66
2023/12/20 09:43:54;;;;;;;9.40;2.65;;;;;;;;;;4985485;28;20044;-67
2023/12/20 09:46:22;;;;;;;10.57;2.45;;;;;;;;;;5005380;28;20094;-67
2023/12/20 09:48:47;;;;;;;6.63;1.98;;;;;;;;;;4997179;28;20037;-66
2023/12/20 09:51:13;;;;;;;6.70;2.28;;;;;;;;;;4993011;28;20034;-67
2023/12/20 09:53:38;;;;;;;4.47;2.10;;;;;;;;;;4983215;28;20084;-66
2023/12/20 09:56:03;;;;;;;9.55;3.08;;;;;;;;;;5001189;28;20822;-66
2023/12/20 09:58:29;;;;;;;12.05;1.98;;;;;;;;;;4983645;28;20529;-67
2023/12/20 10:00:55;;;;;;;6.80;2.10;;;;;;;;;;4994211;28;20134;-65
2023/12/20 10:03:26;;;;;;;4.53;2.13;;;;;;;;;;4994259;28;20033;-66
2023/12/20 10:05:55;;;;;;;6.68;1.95;;;;;;;;;;5015933;28;20037;-66
2023/12/20 10:08:21;;;;;;;9.23;1.67;;;;;;;;;;4993924;28;20040;-66
2023/12/20 10:10:47;;;;;;;8.57;2.17;;;;;;;;;;4998934;28;20110;-66
2023/12/20 10:13:13;;;;;;;8.57;2.60;;;;;;;;;;5001642;28;20190;-66
2023/12/20 10:15:38;;;;;;;5.88;1.60;;;;;;;;;;4997204;28;20121;-66
2023/12/20 10:18:04;;;;;;;11.00;2.38;;;;;;;;;;4999530;28;20072;-67
2023/12/20 10:20:30;;;;;;;10.55;2.20;;;;;;;;;;4988393;28;20878;-66
2023/12/20 10:22:56;;;;;;;5.60;1.80;;;;;;;;;;4997896;28;20440;-66
2023/12/20 10:25:21;;;;;;;8.77;2.92;;;;;;;;;;4994469;28;20076;-66
2023/12/20 10:27:47;;;;;;;6.38;2.00;;;;;;;;;;5002377;28;20033;-65
2023/12/20 10:30:16;;;;;;;6.00;2.03;;;;;;;;;;4995603;28;20041;-66
2023/12/20 10:32:41;;;;;;;8.23;2.30;;;;;;;;;;4992156;28;20088;-66
2023/12/20 10:35:07;;;;;;;7.63;2.05;;;;;;;;;;4998176;28;20119;-66
2023/12/20 10:37:35;;;;;;;7.15;1.77;;;;;;;;;;4999188;28;20854;-66
2023/12/20 10:40:02;;;;;;;7.38;2.35;;;;;;;;;;4986137;28;20192;-66
2023/12/20 10:42:29;;;;;;;7.72;2.10;;;;;;;;;;4990140;28;20040;-66
2023/12/20 10:44:55;;;;;;;10.48;2.50;;;;;;;;;;5008772;28;20145;-65
2023/12/20 10:47:20;;;;;;;5.18;1.83;;;;;;;;;;5014559;28;20125;-65
2023/12/20 10:49:46;;;;;;;7.38;2.70;;;;;;;;;;5015131;28;20431;-67
2023/12/20 10:52:12;;;;;;;3.78;1.85;;;;;;;;;;4993779;28;20022;-66
2023/12/20 10:54:37;;;;;;;5.32;2.00;;;;;;;;;;4987441;28;20177;-67
2023/12/20 10:57:05;;;;;;;6.25;1.80;;;;;;;;;;5008185;28;20464;-66
2023/12/20 10:59:32;;;;;;;9.88;2.42;;;;;;;;;;4999386;28;20396;-66
2023/12/20 11:01:59;;;;;;;13.00;2.97;;;;;;;;;;5000542;28;20025;-67
2023/12/20 11:04:28;;;;;;;6.68;2.50;;;;;;;;;;5010416;28;20040;-66
2023/12/20 11:07:07;;;;;;;7.47;1.75;;;;;;;;;;5015765;28;20029;-67
2023/12/20 11:09:35;;;;;;;5.78;1.88;;;;;;;;;;5003255;28;20053;-66
2023/12/20 11:12:16;;;;;;;4.18;1.83;;;;;;;;;;5008920;28;20840;-66
2023/12/20 11:14:51;;;;;;;8.35;2.15;;;;;;;;;;5007102;28;20017;-66
2023/12/20 11:17:17;;;;;;;8.52;2.20;;;;;;;;;;4991832;28;20033;-65
2023/12/20 11:19:52;;;;;;;7.45;2.33;;;;;;;;;;4956429;28;20038;-65
2023/12/20 11:22:17;;;;;;;8.27;2.30;;;;;;;;;;4976932;28;20091;-66
2023/12/20 11:28:05;;;;;;;8.77;2.50;;;;;;;;;;4980713;28;20842;-67
2023/12/20 11:30:40;;;;;;;8.77;2.13;;;;;;;;;;4983906;28;20034;-66
2023/12/20 11:33:07;;;;;;;6.13;2.25;;;;;;;;;;4979624;28;20038;-66
2023/12/20 11:35:32;;;;;;;10.55;2.70;;;;;;;;;;4980585;28;20021;-66
2023/12/20 11:37:57;;;;;;;7.85;2.20;;;;;;;;;;4983379;28;20024;-66
2023/12/20 11:40:23;;;;;;;6.30;2.45;;;;;;;;;;4986551;28;21012;-66
2023/12/20 11:42:49;;;;;;;8.25;2.63;;;;;;;;;;4980994;28;20363;-66
2023/12/20 11:45:15;;;;;;;7.50;3.10;;;;;;;;;;4978794;28;20033;-66
2023/12/20 11:47:41;;;;;;;6.70;2.03;;;;;;;;;;4981028;28;20408;-66
2023/12/20 11:50:07;;;;;;;8.07;3.08;;;;;;;;;;4976868;28;20037;-66
2023/12/20 11:52:32;;;;;;;7.32;2.53;;;;;;;;;;4982290;28;20140;-66
2023/12/20 11:54:58;;;;;;;8.85;2.25;;;;;;;;;;4981029;28;20075;-66
2023/12/20 11:57:23;;;;;;;8.50;3.08;;;;;;;;;;4991400;28;20032;-66
2023/12/20 11:59:48;;;;;;;6.88;2.70;;;;;;;;;;4979090;28;20117;-66
2023/12/20 12:02:13;;;;;;;8.88;2.25;;;;;;;;;;4979672;28;20336;-66
2023/12/20 12:04:41;;;;;;;9.93;2.78;;;;;;;;;;4981805;28;20033;-66
2023/12/20 12:07:06;;;;;;;7.07;2.47;;;;;;;;;;4984772;28;20876;-66
2023/12/20 12:09:31;;;;;;;8.63;2.80;;;;;;;;;;4978158;28;20032;-66
2023/12/20 12:11:57;;;;;;;9.67;2.70;;;;;;;;;;4982108;28;20284;-66
2023/12/20 12:14:22;;;;;;;7.85;2.53;;;;;;;;;;4983676;28;20311;-67
2023/12/20 12:16:47;;;;;;;4.40;2.38;;;;;;;;;;4983724;28;20037;-65
2023/12/20 12:19:22;;;;;;;9.48;3.28;;;;;;;;;;4984412;28;20041;-66
2023/12/20 12:21:48;;;;;;;14.27;3.33;;;;;;;;;;4984528;28;20036;-66
2023/12/20 12:24:13;;;;;;;17.85;3.33;;;;;;;;;;4981604;28;20033;-66
2023/12/20 12:26:39;;;;;;;7.93;2.20;;;;;;;;;;4977894;28;20037;-66
2023/12/20 12:29:07;;;;;;;7.35;3.10;;;;;;;;;;4979263;28;20812;-66
2023/12/20 12:31:32;;;;;;;8.20;2.80;;;;;;;;;;4979950;28;20026;-67
2023/12/20 12:33:57;;;;;;;9.05;3.95;;;;;;;;;;4977382;28;20978;-66
2023/12/20 12:36:22;;;;;;;11.77;4.07;;;;;;;;;;4978269;28;20431;-66
2023/12/20 12:38:48;;;;;;;10.00;4.38;;;;;;;;;;4974520;28;20050;-66
2023/12/20 12:41:15;;;;;;;15.27;5.47;;;;;;;;;;4979179;28;20017;-66
2023/12/20 12:43:40;;;;;;;12.27;5.00;;;;;;;;;;4983188;28;20022;-68
2023/12/20 12:46:05;;;;;;;7.18;4.03;;;;;;;;;;4981959;28;20029;-68
2023/12/20 12:48:31;;;;;;;10.07;4.10;;;;;;;;;;4986325;28;20104;-67
2023/12/20 12:50:59;;;;;;;7.82;3.28;;;;;;;;;;4982278;28;20947;-68
2023/12/20 12:53:24;;;;;;;13.55;3.85;;;;;;;;;;4981036;28;20392;-67
2023/12/20 12:55:49;;;;;;;10.05;2.83;;;;;;;;;;4975523;28;20030;-67
2023/12/20 12:58:14;;;;;;;4.47;2.90;;;;;;;;;;4986178;28;20061;-65
2023/12/20 13:00:40;;;;;;;6.05;2.70;;;;;;;;;;4980452;28;20022;-67
2023/12/20 13:03:05;;;;;;;5.55;2.85;;;;;;;;;;4983646;28;20022;-66
2023/12/20 13:05:31;;;;;;;9.45;3.10;;;;;;;;;;4986829;28;20033;-67
2023/12/20 13:07:56;;;;;;;11.38;3.28;;;;;;;;;;4982435;28;20907;-67
2023/12/20 13:10:22;;;;;;;7.07;3.05;;;;;;;;;;4981174;28;20044;-67
2023/12/20 13:12:47;;;;;;;13.70;3.85;;;;;;;;;;4979206;28;20908;-67
2023/12/20 13:15:12;;;;;;;6.80;2.73;;;;;;;;;;4983515;28;20021;-66
2023/12/20 13:17:38;;;;;;;10.40;3.05;;;;;;;;;;4975320;28;20280;-67
2023/12/20 13:20:03;;;;;;;9.15;3.30;;;;;;;;;;4975010;28;20026;-67
2023/12/20 13:22:28;;;;;;;13.32;3.88;;;;;;;;;;4975904;28;20025;-67
2023/12/20 13:24:54;;;;;;;13.02;3.75;;;;;;;;;;4990908;28;20029;-67
2023/12/20 13:27:19;;;;;;;6.77;3.13;;;;;;;;;;4981865;28;20040;-67
2023/12/20 13:29:44;;;;;;;8.23;3.22;;;;;;;;;;4978759;28;20268;-67
2023/12/20 13:32:09;;;;;;;7.82;3.35;;;;;;;;;;4975989;28;20037;-67
2023/12/20 13:34:35;;;;;;;9.57;3.72;;;;;;;;;;4975269;28;20986;-67
2023/12/20 13:37:00;;;;;;;9.63;3.60;;;;;;;;;;4973618;28;20061;-67
2023/12/20 13:39:26;;;;;;;9.05;4.22;;;;;;;;;;4978393;28;20083;-67
2023/12/20 13:41:51;;;;;;;7.67;3.87;;;;;;;;;;4979179;28;20099;-66
2023/12/20 13:44:16;;;;;;;8.00;3.75;;;;;;;;;;4986330;28;20308;-65
2023/12/20 13:46:42;;;;;;;10.15;3.30;;;;;;;;;;4987024;28;20136;-65
2023/12/20 13:49:07;;;;;;;8.73;3.63;;;;;;;;;;4986726;28;20029;-66
2023/12/20 13:51:32;;;;;;;8.32;3.13;;;;;;;;;;4982389;28;20093;-66
2023/12/20 13:53:57;;;;;;;9.80;2.80;;;;;;;;;;4977313;28;20064;-66
2023/12/20 13:56:23;;;;;;;9.68;3.88;;;;;;;;;;4961170;28;20084;-66
2023/12/20 13:58:48;;;;;;;9.32;3.35;;;;;;;;;;4962145;28;20041;-66
2023/12/20 14:01:14;;;;;;;10.38;3.13;;;;;;;;;;4977183;28;20021;-66
2023/12/20 14:03:39;;;;;;;11.35;3.17;;;;;;;;;;4974591;28;20911;-66
2023/12/20 14:06:04;;;;;;;13.43;3.47;;;;;;;;;;4985665;28;20083;-66
2023/12/20 14:08:29;;;;;;;11.93;3.00;;;;;;;;;;4974798;28;20731;-66
2023/12/20 14:10:55;;;;;;;11.40;3.20;;;;;;;;;;4979142;28;20017;-64
2023/12/20 14:13:20;;;;;;;6.47;2.83;;;;;;;;;;4976123;28;20354;-64
2023/12/20 14:15:46;;;;;;;8.93;3.05;;;;;;;;;;4971975;28;20285;-65
2023/12/20 14:18:14;;;;;;;9.60;3.30;;;;;;;;;;4987452;28;20507;-65
2023/12/20 14:20:40;;;;;;;8.27;3.10;;;;;;;;;;4981665;28;20018;-65
2023/12/20 14:23:05;;;;;;;9.60;2.60;;;;;;;;;;4984963;28;20080;-66
2023/12/20 14:25:31;;;;;;;13.27;3.40;;;;;;;;;;4979520;28;20104;-66
2023/12/20 14:27:56;;;;;;;13.27;4.22;;;;;;;;;;4977176;28;20026;-65
2023/12/20 14:30:21;;;;;;;10.80;3.92;;;;;;;;;;4980748;28;20041;-65
2023/12/20 14:32:48;;;;;;;8.70;3.97;;;;;;;;;;4988831;28;20853;-65